sensor_id;sensor_type;location;lat;lon;timestamp;P1;durP1;ratioP1;P2;durP2;ratioP2
950;SDS011;462;48.758;9.256;2022-08-19T00:01:19;18.00;;;16.30;;
950;SDS011;462;48.758;9.256;2022-08-19T00:09:23;16.37;;;15.07;;
950;SDS011;462;48.758;9.256;2022-08-19T00:17:26;17.03;;;15.53;;
950;SDS011;462;48.758;9.256;2022-08-19T00:25:29;17.80;;;16.30;;
950;SDS011;462;48.758;9.256;2022-08-19T00:33:32;18.70;;;17.10;;
950;SDS011;462;48.758;9.256;2022-08-19T00:41:36;18.53;;;16.93;;
950;SDS011;462;48.758;9.256;2022-08-19T00:49:39;18.73;;;17.07;;
950;SDS011;462;48.758;9.256;2022-08-19T00:57:48;19.73;;;17.73;;
950;SDS011;462;48.758;9.256;2022-08-19T01:05:54;17.03;;;15.53;;
950;SDS011;462;48.758;9.256;2022-08-19T01:13:59;18.97;;;17.07;;
950;SDS011;462;48.758;9.256;2022-08-19T01:22:03;18.43;;;16.53;;
950;SDS011;462;48.758;9.256;2022-08-19T01:30:13;16.70;;;15.20;;
950;SDS011;462;48.758;9.256;2022-08-19T01:38:19;18.80;;;17.00;;
950;SDS011;462;48.758;9.256;2022-08-19T01:46:25;19.13;;;17.30;;
950;SDS011;462;48.758;9.256;2022-08-19T01:54:27;19.10;;;17.30;;
950;SDS011;462;48.758;9.256;2022-08-19T02:02:31;18.80;;;17.20;;
950;SDS011;462;48.758;9.256;2022-08-19T02:10:33;18.93;;;17.23;;
950;SDS011;462;48.758;9.256;2022-08-19T02:18:42;21.03;;;19.00;;
950;SDS011;462;48.758;9.256;2022-08-19T02:26:44;20.97;;;18.97;;
950;SDS011;462;48.758;9.256;2022-08-19T02:34:48;22.80;;;20.50;;
950;SDS011;462;48.758;9.256;2022-08-19T02:42:51;20.90;;;18.83;;
950;SDS011;462;48.758;9.256;2022-08-19T02:50:54;22.67;;;20.60;;
950;SDS011;462;48.758;9.256;2022-08-19T02:58:57;22.60;;;20.40;;
950;SDS011;462;48.758;9.256;2022-08-19T03:07:01;23.50;;;21.30;;
950;SDS011;462;48.758;9.256;2022-08-19T03:15:04;25.77;;;23.30;;
950;SDS011;462;48.758;9.256;2022-08-19T03:23:08;24.50;;;22.00;;
950;SDS011;462;48.758;9.256;2022-08-19T03:31:13;26.30;;;23.53;;
950;SDS011;462;48.758;9.256;2022-08-19T03:39:17;26.60;;;24.03;;
950;SDS011;462;48.758;9.256;2022-08-19T03:47:20;28.07;;;25.37;;
950;SDS011;462;48.758;9.256;2022-08-19T03:55:23;30.17;;;27.27;;
950;SDS011;462;48.758;9.256;2022-08-19T04:03:26;27.30;;;24.67;;
950;SDS011;462;48.758;9.256;2022-08-19T04:11:33;29.10;;;26.20;;
950;SDS011;462;48.758;9.256;2022-08-19T04:19:41;28.27;;;25.37;;
950;SDS011;462;48.758;9.256;2022-08-19T04:27:46;30.20;;;27.20;;
950;SDS011;462;48.758;9.256;2022-08-19T04:35:49;30.73;;;27.63;;
950;SDS011;462;48.758;9.256;2022-08-19T04:43:54;31.30;;;28.27;;
950;SDS011;462;48.758;9.256;2022-08-19T04:51:56;29.50;;;26.80;;
950;SDS011;462;48.758;9.256;2022-08-19T05:00:00;29.93;;;27.00;;
950;SDS011;462;48.758;9.256;2022-08-19T05:08:04;29.40;;;26.50;;
950;SDS011;462;48.758;9.256;2022-08-19T05:16:08;28.17;;;25.47;;
950;SDS011;462;48.758;9.256;2022-08-19T05:24:12;30.67;;;27.87;;
950;SDS011;462;48.758;9.256;2022-08-19T05:32:16;28.77;;;25.87;;
950;SDS011;462;48.758;9.256;2022-08-19T05:40:19;29.60;;;26.73;;
950;SDS011;462;48.758;9.256;2022-08-19T05:48:24;29.30;;;26.60;;
950;SDS011;462;48.758;9.256;2022-08-19T05:56:26;29.03;;;26.40;;
950;SDS011;462;48.758;9.256;2022-08-19T06:04:32;29.53;;;26.73;;
950;SDS011;462;48.758;9.256;2022-08-19T06:12:35;31.47;;;28.60;;
950;SDS011;462;48.758;9.256;2022-08-19T06:20:39;30.57;;;27.57;;
950;SDS011;462;48.758;9.256;2022-08-19T06:28:41;33.57;;;30.40;;
950;SDS011;462;48.758;9.256;2022-08-19T06:36:49;34.03;;;30.70;;
950;SDS011;462;48.758;9.256;2022-08-19T06:44:52;33.33;;;30.13;;
950;SDS011;462;48.758;9.256;2022-08-19T06:52:56;35.13;;;31.53;;
950;SDS011;462;48.758;9.256;2022-08-19T07:00:59;36.40;;;32.70;;
950;SDS011;462;48.758;9.256;2022-08-19T07:09:07;33.30;;;30.00;;
950;SDS011;462;48.758;9.256;2022-08-19T07:17:11;32.93;;;29.67;;
950;SDS011;462;48.758;9.256;2022-08-19T07:25:16;33.50;;;30.47;;
950;SDS011;462;48.758;9.256;2022-08-19T07:33:18;35.33;;;31.80;;
950;SDS011;462;48.758;9.256;2022-08-19T07:41:23;36.03;;;32.50;;
950;SDS011;462;48.758;9.256;2022-08-19T07:49:28;35.30;;;31.50;;
950;SDS011;462;48.758;9.256;2022-08-19T07:57:32;34.67;;;31.10;;
950;SDS011;462;48.758;9.256;2022-08-19T08:05:35;35.33;;;31.47;;
950;SDS011;462;48.758;9.256;2022-08-19T08:13:56;33.97;;;30.47;;
950;SDS011;462;48.758;9.256;2022-08-19T08:21:59;35.80;;;32.30;;
950;SDS011;462;48.758;9.256;2022-08-19T08:30:04;38.37;;;32.27;;
950;SDS011;462;48.758;9.256;2022-08-19T08:38:09;36.47;;;32.97;;
950;SDS011;462;48.758;9.256;2022-08-19T08:46:13;36.77;;;33.20;;
950;SDS011;462;48.758;9.256;2022-08-19T08:54:19;38.57;;;34.77;;
950;SDS011;462;48.758;9.256;2022-08-19T09:02:33;34.90;;;31.60;;
950;SDS011;462;48.758;9.256;2022-08-19T09:10:37;32.07;;;28.97;;
950;SDS011;462;48.758;9.256;2022-08-19T09:18:42;32.73;;;29.37;;
950;SDS011;462;48.758;9.256;2022-08-19T09:26:47;32.53;;;29.57;;
950;SDS011;462;48.758;9.256;2022-08-19T09:34:50;30.87;;;27.70;;
950;SDS011;462;48.758;9.256;2022-08-19T09:42:54;30.73;;;27.53;;
950;SDS011;462;48.758;9.256;2022-08-19T09:51:03;33.40;;;29.90;;
950;SDS011;462;48.758;9.256;2022-08-19T09:59:06;33.83;;;30.20;;
950;SDS011;462;48.758;9.256;2022-08-19T10:07:10;34.60;;;31.50;;
950;SDS011;462;48.758;9.256;2022-08-19T10:15:13;34.60;;;31.33;;
950;SDS011;462;48.758;9.256;2022-08-19T10:23:18;37.77;;;34.03;;
950;SDS011;462;48.758;9.256;2022-08-19T10:31:22;46.93;;;42.43;;
950;SDS011;462;48.758;9.256;2022-08-19T10:39:29;35.00;;;31.70;;
950;SDS011;462;48.758;9.256;2022-08-19T10:47:32;37.00;;;33.53;;
950;SDS011;462;48.758;9.256;2022-08-19T10:55:36;33.03;;;30.03;;
950;SDS011;462;48.758;9.256;2022-08-19T11:03:56;36.67;;;32.90;;
950;SDS011;462;48.758;9.256;2022-08-19T11:12:00;42.10;;;37.50;;
950;SDS011;462;48.758;9.256;2022-08-19T11:20:03;38.83;;;34.90;;
950;SDS011;462;48.758;9.256;2022-08-19T11:28:07;37.53;;;33.93;;
950;SDS011;462;48.758;9.256;2022-08-19T11:36:10;39.23;;;35.37;;
950;SDS011;462;48.758;9.256;2022-08-19T11:44:14;39.43;;;35.63;;
950;SDS011;462;48.758;9.256;2022-08-19T11:52:16;41.00;;;36.90;;
950;SDS011;462;48.758;9.256;2022-08-19T12:00:20;40.07;;;35.97;;
950;SDS011;462;48.758;9.256;2022-08-19T12:08:22;36.10;;;32.80;;
950;SDS011;462;48.758;9.256;2022-08-19T12:16:27;36.37;;;33.10;;
950;SDS011;462;48.758;9.256;2022-08-19T12:24:31;35.73;;;32.53;;
950;SDS011;462;48.758;9.256;2022-08-19T12:32:35;43.90;;;39.50;;
950;SDS011;462;48.758;9.256;2022-08-19T12:40:37;39.60;;;35.77;;
950;SDS011;462;48.758;9.256;2022-08-19T12:48:42;41.57;;;37.37;;
950;SDS011;462;48.758;9.256;2022-08-19T12:56:45;42.33;;;38.10;;
950;SDS011;462;48.758;9.256;2022-08-19T13:04:48;42.60;;;38.40;;
950;SDS011;462;48.758;9.256;2022-08-19T13:12:51;38.80;;;34.90;;
950;SDS011;462;48.758;9.256;2022-08-19T13:20:55;40.77;;;36.80;;
950;SDS011;462;48.758;9.256;2022-08-19T13:28:57;44.57;;;40.07;;
950;SDS011;462;48.758;9.256;2022-08-19T13:37:19;39.87;;;36.00;;
950;SDS011;462;48.758;9.256;2022-08-19T13:45:41;40.97;;;36.93;;
950;SDS011;462;48.758;9.256;2022-08-19T13:53:44;40.37;;;36.47;;
950;SDS011;462;48.758;9.256;2022-08-19T14:01:47;43.70;;;39.53;;
950;SDS011;462;48.758;9.256;2022-08-19T14:09:51;44.90;;;40.30;;
950;SDS011;462;48.758;9.256;2022-08-19T14:17:53;42.00;;;37.87;;
950;SDS011;462;48.758;9.256;2022-08-19T14:26:04;39.13;;;35.43;;
950;SDS011;462;48.758;9.256;2022-08-19T14:34:08;42.57;;;38.30;;
950;SDS011;462;48.758;9.256;2022-08-19T14:42:12;36.90;;;33.53;;
950;SDS011;462;48.758;9.256;2022-08-19T14:50:15;33.07;;;29.77;;
950;SDS011;462;48.758;9.256;2022-08-19T14:58:18;31.77;;;28.77;;
950;SDS011;462;48.758;9.256;2022-08-19T15:06:22;30.43;;;27.83;;
950;SDS011;462;48.758;9.256;2022-08-19T15:14:28;34.60;;;31.40;;
950;SDS011;462;48.758;9.256;2022-08-19T15:22:34;34.23;;;31.10;;
950;SDS011;462;48.758;9.256;2022-08-19T15:30:39;28.70;;;26.27;;
950;SDS011;462;48.758;9.256;2022-08-19T15:38:43;28.90;;;26.33;;
950;SDS011;462;48.758;9.256;2022-08-19T15:46:47;29.00;;;26.50;;
950;SDS011;462;48.758;9.256;2022-08-19T15:54:50;33.20;;;30.20;;
950;SDS011;462;48.758;9.256;2022-08-19T16:02:54;30.63;;;27.90;;
950;SDS011;462;48.758;9.256;2022-08-19T16:11:14;32.13;;;28.97;;
950;SDS011;462;48.758;9.256;2022-08-19T16:19:21;29.90;;;27.47;;
950;SDS011;462;48.758;9.256;2022-08-19T16:27:24;30.10;;;27.40;;
950;SDS011;462;48.758;9.256;2022-08-19T16:35:29;34.70;;;31.67;;
950;SDS011;462;48.758;9.256;2022-08-19T16:43:31;31.67;;;28.77;;
950;SDS011;462;48.758;9.256;2022-08-19T16:51:35;31.43;;;28.53;;
950;SDS011;462;48.758;9.256;2022-08-19T16:59:38;30.17;;;27.27;;
950;SDS011;462;48.758;9.256;2022-08-19T17:07:42;29.87;;;26.97;;
950;SDS011;462;48.758;9.256;2022-08-19T17:15:44;30.53;;;27.80;;
950;SDS011;462;48.758;9.256;2022-08-19T17:23:49;31.20;;;28.20;;
950;SDS011;462;48.758;9.256;2022-08-19T17:31:51;28.53;;;26.03;;
950;SDS011;462;48.758;9.256;2022-08-19T17:39:55;30.60;;;27.87;;
950;SDS011;462;48.758;9.256;2022-08-19T17:47:57;29.53;;;26.93;;
950;SDS011;462;48.758;9.256;2022-08-19T17:56:02;28.87;;;26.30;;
950;SDS011;462;48.758;9.256;2022-08-19T18:04:04;29.23;;;26.50;;
950;SDS011;462;48.758;9.256;2022-08-19T18:12:11;30.63;;;27.87;;
950;SDS011;462;48.758;9.256;2022-08-19T18:20:15;29.70;;;27.00;;
950;SDS011;462;48.758;9.256;2022-08-19T18:28:19;31.47;;;28.10;;
950;SDS011;462;48.758;9.256;2022-08-19T18:36:22;28.77;;;26.17;;
950;SDS011;462;48.758;9.256;2022-08-19T18:44:26;30.33;;;27.50;;
950;SDS011;462;48.758;9.256;2022-08-19T18:52:46;35.57;;;32.37;;
950;SDS011;462;48.758;9.256;2022-08-19T19:00:50;31.50;;;28.80;;
950;SDS011;462;48.758;9.256;2022-08-19T19:08:55;32.97;;;29.97;;
950;SDS011;462;48.758;9.256;2022-08-19T19:17:02;35.50;;;32.20;;
950;SDS011;462;48.758;9.256;2022-08-19T19:25:06;34.03;;;30.30;;
950;SDS011;462;48.758;9.256;2022-08-19T19:33:12;36.10;;;32.73;;
950;SDS011;462;48.758;9.256;2022-08-19T19:41:16;35.93;;;32.60;;
950;SDS011;462;48.758;9.256;2022-08-19T19:49:21;34.10;;;31.20;;
950;SDS011;462;48.758;9.256;2022-08-19T19:57:24;37.43;;;33.97;;
950;SDS011;462;48.758;9.256;2022-08-19T20:05:27;32.73;;;29.63;;
950;SDS011;462;48.758;9.256;2022-08-19T20:13:30;34.93;;;31.53;;
950;SDS011;462;48.758;9.256;2022-08-19T20:21:35;37.33;;;33.77;;
950;SDS011;462;48.758;9.256;2022-08-19T20:29:38;39.57;;;35.67;;
950;SDS011;462;48.758;9.256;2022-08-19T20:37:43;37.00;;;33.63;;
950;SDS011;462;48.758;9.256;2022-08-19T20:45:45;38.77;;;35.10;;
950;SDS011;462;48.758;9.256;2022-08-19T20:53:49;36.60;;;33.40;;
950;SDS011;462;48.758;9.256;2022-08-19T21:01:52;37.00;;;33.80;;
950;SDS011;462;48.758;9.256;2022-08-19T21:09:56;35.80;;;32.53;;
950;SDS011;462;48.758;9.256;2022-08-19T21:17:59;37.07;;;33.67;;
950;SDS011;462;48.758;9.256;2022-08-19T21:26:03;35.33;;;32.17;;
950;SDS011;462;48.758;9.256;2022-08-19T21:34:05;38.47;;;34.87;;
950;SDS011;462;48.758;9.256;2022-08-19T21:42:09;30.80;;;28.07;;
950;SDS011;462;48.758;9.256;2022-08-19T21:50:13;31.03;;;28.37;;
950;SDS011;462;48.758;9.256;2022-08-19T21:58:17;24.07;;;22.07;;
950;SDS011;462;48.758;9.256;2022-08-19T22:06:20;24.10;;;22.13;;
950;SDS011;462;48.758;9.256;2022-08-19T22:14:26;22.33;;;20.20;;
950;SDS011;462;48.758;9.256;2022-08-19T22:22:29;19.63;;;17.70;;
950;SDS011;462;48.758;9.256;2022-08-19T22:30:34;18.03;;;16.37;;
950;SDS011;462;48.758;9.256;2022-08-19T22:38:39;15.00;;;13.70;;
950;SDS011;462;48.758;9.256;2022-08-19T22:46:42;15.60;;;13.97;;
950;SDS011;462;48.758;9.256;2022-08-19T22:54:45;14.03;;;12.80;;
950;SDS011;462;48.758;9.256;2022-08-19T23:02:50;13.93;;;12.83;;
950;SDS011;462;48.758;9.256;2022-08-19T23:10:53;14.60;;;13.20;;
950;SDS011;462;48.758;9.256;2022-08-19T23:18:57;16.83;;;15.47;;
950;SDS011;462;48.758;9.256;2022-08-19T23:26:59;11.77;;;10.80;;
950;SDS011;462;48.758;9.256;2022-08-19T23:35:20;12.90;;;11.90;;
950;SDS011;462;48.758;9.256;2022-08-19T23:43:23;13.50;;;12.40;;
950;SDS011;462;48.758;9.256;2022-08-19T23:51:29;16.07;;;14.87;;
950;SDS011;462;48.758;9.256;2022-08-19T23:59:32;13.40;;;12.20;;
